Map

Track Data

SID SEASON NUMBER BASIN SUBBASIN NAME ISO_TIME NATURE LAT LON WMO_WIND WMO_PRES WMO_AGENCY TRACK_TYPE DIST2LAND LANDFALL IFLAG USA_AGENCY USA_ATCF_ID USA_LAT USA_LON USA_RECORD USA_STATUS USA_WIND USA_PRES USA_SSHS USA_R34_NE USA_R34_SE USA_R34_SW USA_R34_NW USA_R50_NE USA_R50_SE USA_R50_SW USA_R50_NW USA_R64_NE USA_R64_SE USA_R64_SW USA_R64_NW USA_POCI USA_ROCI USA_RMW USA_EYE TOKYO_LAT TOKYO_LON TOKYO_GRADE TOKYO_WIND TOKYO_PRES TOKYO_R50_DIR TOKYO_R50_LONG TOKYO_R50_SHORT TOKYO_R30_DIR TOKYO_R30_LONG TOKYO_R30_SHORT TOKYO_LAND CMA_LAT CMA_LON CMA_CAT CMA_WIND CMA_PRES HKO_LAT HKO_LON HKO_CAT HKO_WIND HKO_PRES NEWDELHI_LAT NEWDELHI_LON NEWDELHI_GRADE NEWDELHI_WIND NEWDELHI_PRES NEWDELHI_CI NEWDELHI_DP NEWDELHI_POCI REUNION_LAT REUNION_LON REUNION_TYPE REUNION_WIND REUNION_PRES REUNION_TNUM REUNION_CI REUNION_RMW REUNION_R34_NE REUNION_R34_SE REUNION_R34_SW REUNION_R34_NW REUNION_R50_NE REUNION_R50_SE REUNION_R50_SW REUNION_R50_NW REUNION_R64_NE REUNION_R64_SE REUNION_R64_SW REUNION_R64_NW BOM_LAT BOM_LON BOM_TYPE BOM_WIND BOM_PRES BOM_TNUM BOM_CI BOM_RMW BOM_R34_NE BOM_R34_SE BOM_R34_SW BOM_R34_NW BOM_R50_NE BOM_R50_SE BOM_R50_SW BOM_R50_NW BOM_R64_NE BOM_R64_SE BOM_R64_SW BOM_R64_NW BOM_ROCI BOM_POCI BOM_EYE BOM_POS_METHOD BOM_PRES_METHOD NADI_LAT NADI_LON NADI_CAT NADI_WIND NADI_PRES WELLINGTON_LAT WELLINGTON_LON WELLINGTON_WIND WELLINGTON_PRES DS824_LAT DS824_LON DS824_STAGE DS824_WIND DS824_PRES TD9636_LAT TD9636_LON TD9636_STAGE TD9636_WIND TD9636_PRES TD9635_LAT TD9635_LON TD9635_WIND TD9635_PRES TD9635_ROCI NEUMANN_LAT NEUMANN_LON NEUMANN_CLASS NEUMANN_WIND NEUMANN_PRES MLC_LAT MLC_LON MLC_CLASS MLC_WIND MLC_PRES USA_GUST BOM_GUST BOM_GUST_PER REUNION_GUST REUNION_GUST_PER USA_SEAHGT USA_SEARAD_NE USA_SEARAD_SE USA_SEARAD_SW USA_SEARAD_NW STORM_SPEED STORM_DIR
1858162N17283 1858 7 NA CS NOT_NAMED 1858-06-10 18:00:00 TS 16.8000 -77.0000 main 102 81 _____________O -1 16.8000 -77.0000 TD 30 11 292
1858162N17283 1858 7 NA CS NOT_NAMED 1858-06-10 21:00:00 TS 17.0127 -77.5372 main 84 81 _____________P -1 17.0127 -77.5372 TD 30 11 291
1858162N17283 1858 7 NA CS NOT_NAMED 1858-06-11 00:00:00 TS 17.2000 -78.1000 main 89 89 _____________O -1 17.2000 -78.1000 TD 30 12 287
1858162N17283 1858 7 NA CS NOT_NAMED 1858-06-11 03:00:00 TS 17.3500 -78.7002 main 105 94 _____________P -1 17.3500 -78.7002 TD 30 12 285
1858162N17283 1858 7 NA CS NOT_NAMED 1858-06-11 06:00:00 TS 17.5000 -79.3000 main 123 123 _____________O -1 17.5000 -79.3000 TD 30 12 288
1858162N17283 1858 7 NA CS NOT_NAMED 1858-06-11 09:00:00 TS 17.6997 -79.8500 main 168 168 _____________P -1 17.6997 -79.8500 TD 35 11 291
1858162N17283 1858 7 NA CS NOT_NAMED 1858-06-11 12:00:00 TS 17.9000 -80.4000 main 214 214 _____________O -1 17.9000 -80.4000 TS 40 12 288
1858162N17283 1858 7 NA CS NOT_NAMED 1858-06-11 15:00:00 TS 18.0499 -81.0002 main 275 274 _____________P -1 18.0499 -81.0002 TS 47 12 285
1858162N17283 1858 7 NA CS NOT_NAMED 1858-06-11 18:00:00 TS 18.2000 -81.6000 main 338 338 _____________O -1 18.2000 -81.6000 TS 55 11 288
1858162N17283 1858 7 NA CS NOT_NAMED 1858-06-11 21:00:00 TS 18.3997 -82.1500 main 341 313 _____________P -1 18.3997 -82.1500 TS 55 11 291
1858162N17283 1858 7 NA CS NOT_NAMED 1858-06-12 00:00:00 TS 18.6000 -82.7000 main 313 302 _____________O -1 18.6000 -82.7000 TS 55 11 288
1858162N17283 1858 7 NA CS NOT_NAMED 1858-06-12 03:00:00 TS 18.7499 -83.3002 main 306 294 _____________P -1 18.7499 -83.3002 TS 55 12 285
1858162N17283 1858 7 NA CS NOT_NAMED 1858-06-12 06:00:00 TS 18.9000 -83.9000 main 302 300 _____________O -1 18.9000 -83.9000 TS 55 11 288
1858162N17283 1858 7 NA CS NOT_NAMED 1858-06-12 09:00:00 TS 19.0997 -84.4500 main 301 252 _____________P -1 19.0997 -84.4500 TS 55 11 291
1858162N17283 1858 7 NA CS NOT_NAMED 1858-06-12 12:00:00 TS 19.3000 -85.0000 main 252 189 _____________O -1 19.3000 -85.0000 TS 55 11 288
1858162N17283 1858 7 NA CS NOT_NAMED 1858-06-12 15:00:00 TS 19.4499 -85.6002 main 189 126 _____________P -1 19.4499 -85.6002 TS 55 12 285
1858162N17283 1858 7 NA CS NOT_NAMED 1858-06-12 18:00:00 TS 19.6000 -86.2000 main 126 80 _____________O -1 19.6000 -86.2000 TS 55 11 288
1858162N17283 1858 7 NA CS NOT_NAMED 1858-06-12 21:00:00 TS 19.7997 -86.7500 main 71 20 _____________P -1 19.7997 -86.7500 TS 55 11 291
1858162N17283 1858 7 NA CS NOT_NAMED 1858-06-13 00:00:00 TS 20.0000 -87.3000 main 20 0 _____________O -1 20.0000 -87.3000 TS 55 11 288
1858162N17283 1858 7 NA NA NOT_NAMED 1858-06-13 03:00:00 TS 20.1499 -87.9002 main 0 0 _____________P -1 20.1499 -87.9002 TS 52 12 285
1858162N17283 1858 7 NA NA NOT_NAMED 1858-06-13 06:00:00 TS 20.3000 -88.5000 main 0 0 _____________O -1 20.3000 -88.5000 TS 50 11 288
1858162N17283 1858 7 NA NA NOT_NAMED 1858-06-13 09:00:00 TS 20.4998 -89.0575 main 0 0 _____________P -1 20.4998 -89.0575 TS 47 11 291
1858162N17283 1858 7 NA NA NOT_NAMED 1858-06-13 12:00:00 TS 20.7000 -89.6000 main 0 0 _____________O -1 20.7000 -89.6000 TS 45 11 289
1858162N17283 1858 7 NA NA NOT_NAMED 1858-06-13 15:00:00 TS 20.8498 -90.1503 main 0 0 _____________P -1 20.8498 -90.1503 TS 42 11 286
1858162N17283 1858 7 NA GM NOT_NAMED 1858-06-13 18:00:00 TS 21.0000 -90.7000 main 38 38 _____________O -1 21.0000 -90.7000 TS 40 11 289
1858162N17283 1858 7 NA GM NOT_NAMED 1858-06-13 21:00:00 TS 21.1997 -91.2425 main 93 93 _____________P -1 21.1997 -91.2425 TS 40 11 291
1858162N17283 1858 7 NA GM NOT_NAMED 1858-06-14 00:00:00 TS 21.4000 -91.8000 main 158 158 _____________O -1 21.4000 -91.8000 TS 40 11 288
1858162N17283 1858 7 NA GM NOT_NAMED 1858-06-14 03:00:00 TS 21.5499 -92.4003 main 221 221 _____________P -1 21.5499 -92.4003 TS 42 12 285
1858162N17283 1858 7 NA GM NOT_NAMED 1858-06-14 06:00:00 TS 21.7000 -93.0000 main 287 287 _____________O -1 21.7000 -93.0000 TS 45 11 288
1858162N17283 1858 7 NA GM NOT_NAMED 1858-06-14 09:00:00 TS 21.8997 -93.5500 main 352 334 _____________P -1 21.8997 -93.5500 TS 45 11 291
1858162N17283 1858 7 NA GM NOT_NAMED 1858-06-14 12:00:00 TS 22.1000 -94.1000 main 334 276 _____________O -1 22.1000 -94.1000 TS 45 11 288
1858162N17283 1858 7 NA GM NOT_NAMED 1858-06-14 15:00:00 TS 22.2499 -94.7003 main 276 224 _____________P -1 22.2499 -94.7003 TS 45 12 285
1858162N17283 1858 7 NA GM NOT_NAMED 1858-06-14 18:00:00 TS 22.4000 -95.3000 main 224 190 _____________O -1 22.4000 -95.3000 TS 45 11 288
1858162N17283 1858 7 NA GM NOT_NAMED 1858-06-14 21:00:00 TS 22.5997 -95.8500 main 182 143 _____________P -1 22.5997 -95.8500 TS 45 11 291
1858162N17283 1858 7 NA GM NOT_NAMED 1858-06-15 00:00:00 TS 22.8000 -96.4000 main 143 81 _____________O -1 22.8000 -96.4000 TS 45 11 288
1858162N17283 1858 7 NA GM NOT_NAMED 1858-06-15 03:00:00 TS 22.9499 -97.0003 main 81 20 _____________P -1 22.9499 -97.0003 TS 45 11 285
1858162N17283 1858 7 NA GM NOT_NAMED 1858-06-15 06:00:00 TS 23.1000 -97.6000 main 20 0 _____________O -1 23.1000 -97.6000 TS 45 11 288
1858162N17283 1858 7 NA NA NOT_NAMED 1858-06-15 09:00:00 TS 23.2996 -98.1500 main 0 0 _____________P -1 23.2996 -98.1500 TS 37 11 292
1858162N17283 1858 7 NA NA NOT_NAMED 1858-06-15 12:00:00 TS 23.5000 -98.7000 main 0 0 _____________O -1 23.5000 -98.7000 TD 30 11 289
1858162N17283 1858 7 NA NA NOT_NAMED 1858-06-15 15:00:00 TS 23.6631 -99.2873 main 0 0 _____________P -1 23.6631 -99.2873 TD 30 11 285
1858162N17283 1858 7 NA NA NOT_NAMED 1858-06-15 18:00:00 TS 23.8000 -99.9000 main 0 _____________O -1 23.8000 -99.9000 TD 30 12 284

About IBTrACS Database

This database is a web-friendly format of International Best Track Archive for Climate Stewardship (IBTrACS), a global best track data archive curated by NOAA dating back to 1842.

Updated: 2021-12-06